sensor_id;sensor_type;location;lat;lon;timestamp;pressure;altitude;pressure_sealevel;temperature;humidity
56992;BME280;42885;49.754;18.636;2023-03-14T00:00:43;96705.91;;;14.64;49.85
56992;BME280;42885;49.754;18.636;2023-03-14T00:03:15;96701.34;;;14.70;49.55
56992;BME280;42885;49.754;18.636;2023-03-14T00:05:47;96692.23;;;14.56;49.70
56992;BME280;42885;49.754;18.636;2023-03-14T00:08:19;96681.73;;;14.64;49.65
56992;BME280;42885;49.754;18.636;2023-03-14T00:10:51;96685.17;;;14.61;49.66
56992;BME280;42885;49.754;18.636;2023-03-14T00:13:23;96652.36;;;14.81;48.98
56992;BME280;42885;49.754;18.636;2023-03-14T00:15:54;96643.50;;;14.82;48.98
56992;BME280;42885;49.754;18.636;2023-03-14T00:18:26;96653.09;;;15.04;48.26
56992;BME280;42885;49.754;18.636;2023-03-14T00:21:02;96648.59;;;14.80;48.86
56992;BME280;42885;49.754;18.636;2023-03-14T00:23:35;96626.05;;;14.90;48.44
56992;BME280;42885;49.754;18.636;2023-03-14T00:26:16;96624.42;;;14.97;48.10
56992;BME280;42885;49.754;18.636;2023-03-14T00:28:52;96634.45;;;14.93;48.36
56992;BME280;42885;49.754;18.636;2023-03-14T00:31:23;96631.20;;;15.04;47.83
56992;BME280;42885;49.754;18.636;2023-03-14T00:33:55;96627.70;;;14.82;48.46
56992;BME280;42885;49.754;18.636;2023-03-14T00:36:27;96632.94;;;14.74;48.64
56992;BME280;42885;49.754;18.636;2023-03-14T00:38:59;96620.15;;;14.92;47.93
56992;BME280;42885;49.754;18.636;2023-03-14T00:41:30;96627.20;;;14.79;48.25
56992;BME280;42885;49.754;18.636;2023-03-14T00:44:03;96632.45;;;14.83;48.14
56992;BME280;42885;49.754;18.636;2023-03-14T00:46:34;96601.34;;;14.74;47.95
56992;BME280;42885;49.754;18.636;2023-03-14T00:49:06;96601.34;;;14.74;47.95
56992;BME280;42885;49.754;18.636;2023-03-14T00:51:37;96614.86;;;14.83;48.01
56992;BME280;42885;49.754;18.636;2023-03-14T00:54:09;96590.48;;;14.81;48.10
56992;BME280;42885;49.754;18.636;2023-03-14T00:56:40;96598.48;;;14.67;48.22
56992;BME280;42885;49.754;18.636;2023-03-14T00:59:12;96583.48;;;14.64;48.53
56992;BME280;42885;49.754;18.636;2023-03-14T01:01:44;96580.15;;;14.45;49.00
56992;BME280;42885;49.754;18.636;2023-03-14T01:04:17;96574.41;;;14.50;48.94
56992;BME280;42885;49.754;18.636;2023-03-14T01:06:48;96578.98;;;14.43;49.21
56992;BME280;42885;49.754;18.636;2023-03-14T01:09:19;96572.07;;;14.38;49.36
56992;BME280;42885;49.754;18.636;2023-03-14T01:11:50;96546.75;;;14.37;49.49
56992;BME280;42885;49.754;18.636;2023-03-14T01:14:22;96562.80;;;14.22;49.86
56992;BME280;42885;49.754;18.636;2023-03-14T01:16:53;96535.47;;;14.14;50.24
56992;BME280;42885;49.754;18.636;2023-03-14T01:19:26;96542.67;;;14.08;50.57
56992;BME280;42885;49.754;18.636;2023-03-14T01:21:58;96524.55;;;14.48;49.55
56992;BME280;42885;49.754;18.636;2023-03-14T01:24:29;96530.06;;;14.16;50.20
56992;BME280;42885;49.754;18.636;2023-03-14T01:27:00;96514.39;;;14.10;50.43
56992;BME280;42885;49.754;18.636;2023-03-14T01:29:32;96520.94;;;14.02;50.69
56992;BME280;42885;49.754;18.636;2023-03-14T01:32:03;96506.66;;;14.00;50.67
56992;BME280;42885;49.754;18.636;2023-03-14T01:34:35;96494.81;;;14.00;50.83
56992;BME280;42885;49.754;18.636;2023-03-14T01:37:06;96512.86;;;13.91;50.96
56992;BME280;42885;49.754;18.636;2023-03-14T01:39:39;96505.66;;;14.01;50.75
56992;BME280;42885;49.754;18.636;2023-03-14T01:42:11;96534.89;;;13.98;50.83
56992;BME280;42885;49.754;18.636;2023-03-14T01:44:50;96499.78;;;14.12;50.73
56992;BME280;42885;49.754;18.636;2023-03-14T01:47:23;96503.00;;;13.93;51.05
56992;BME280;42885;49.754;18.636;2023-03-14T01:49:59;96498.97;;;14.11;50.62
56992;BME280;42885;49.754;18.636;2023-03-14T01:52:38;96483.88;;;14.22;50.10
56992;BME280;42885;49.754;18.636;2023-03-14T01:55:13;96478.13;;;14.30;49.81
56992;BME280;42885;49.754;18.636;2023-03-14T01:58:00;96474.97;;;14.14;50.23
56992;BME280;42885;49.754;18.636;2023-03-14T02:00:25;96464.92;;;14.14;50.14
56992;BME280;42885;49.754;18.636;2023-03-14T02:03:07;96470.66;;;14.09;50.39
56992;BME280;42885;49.754;18.636;2023-03-14T02:05:37;96464.95;;;14.18;50.02
56992;BME280;42885;49.754;18.636;2023-03-14T02:08:20;96471.22;;;14.25;49.82
56992;BME280;42885;49.754;18.636;2023-03-14T02:10:54;96468.27;;;14.28;49.39
56992;BME280;42885;49.754;18.636;2023-03-14T02:13:27;96476.45;;;14.21;49.65
56992;BME280;42885;49.754;18.636;2023-03-14T02:16:07;96471.39;;;14.32;49.21
56992;BME280;42885;49.754;18.636;2023-03-14T02:18:39;96483.69;;;14.23;49.32
56992;BME280;42885;49.754;18.636;2023-03-14T02:21:22;96478.84;;;14.62;48.82
56992;BME280;42885;49.754;18.636;2023-03-14T02:26:42;96437.03;;;14.38;48.77
56992;BME280;42885;49.754;18.636;2023-03-14T02:29:03;96457.09;;;14.39;48.68
56992;BME280;42885;49.754;18.636;2023-03-14T02:31:34;96433.27;;;14.36;48.62
56992;BME280;42885;49.754;18.636;2023-03-14T02:34:06;96465.96;;;14.25;49.12
56992;BME280;42885;49.754;18.636;2023-03-14T02:36:37;96471.05;;;14.27;48.97
56992;BME280;42885;49.754;18.636;2023-03-14T02:39:13;96475.03;;;14.39;48.56
56992;BME280;42885;49.754;18.636;2023-03-14T02:41:45;96490.33;;;14.48;48.31
56992;BME280;42885;49.754;18.636;2023-03-14T02:44:18;96486.23;;;14.45;48.37
56992;BME280;42885;49.754;18.636;2023-03-14T02:46:51;96496.77;;;14.45;48.23
56992;BME280;42885;49.754;18.636;2023-03-14T02:49:23;96499.05;;;14.40;48.42
56992;BME280;42885;49.754;18.636;2023-03-14T02:51:56;96507.48;;;14.61;47.86
56992;BME280;42885;49.754;18.636;2023-03-14T02:54:27;96501.89;;;14.59;47.99
56992;BME280;42885;49.754;18.636;2023-03-14T02:56:58;96517.20;;;14.64;47.81
56992;BME280;42885;49.754;18.636;2023-03-14T02:59:30;96540.14;;;14.84;47.15
56992;BME280;42885;49.754;18.636;2023-03-14T03:02:03;96556.27;;;15.06;46.58
56992;BME280;42885;49.754;18.636;2023-03-14T03:04:36;96574.56;;;15.16;46.11
56992;BME280;42885;49.754;18.636;2023-03-14T03:07:08;96566.18;;;15.08;46.47
56992;BME280;42885;49.754;18.636;2023-03-14T03:09:39;96551.02;;;15.23;45.93
56992;BME280;42885;49.754;18.636;2023-03-14T03:12:11;96572.92;;;15.23;46.05
56992;BME280;42885;49.754;18.636;2023-03-14T03:14:43;96560.08;;;15.24;45.83
56992;BME280;42885;49.754;18.636;2023-03-14T03:17:14;96551.19;;;15.38;45.33
56992;BME280;42885;49.754;18.636;2023-03-14T03:19:47;96555.80;;;15.40;45.26
56992;BME280;42885;49.754;18.636;2023-03-14T03:22:21;96535.86;;;15.37;45.36
56992;BME280;42885;49.754;18.636;2023-03-14T03:24:52;96541.46;;;15.51;45.12
56992;BME280;42885;49.754;18.636;2023-03-14T03:27:23;96557.27;;;15.30;45.59
56992;BME280;42885;49.754;18.636;2023-03-14T03:29:55;96544.11;;;15.34;45.56
56992;BME280;42885;49.754;18.636;2023-03-14T03:32:27;96540.47;;;15.39;45.45
56992;BME280;42885;49.754;18.636;2023-03-14T03:34:58;96538.34;;;15.31;45.59
56992;BME280;42885;49.754;18.636;2023-03-14T03:37:31;96541.48;;;15.09;46.15
56992;BME280;42885;49.754;18.636;2023-03-14T03:40:02;96532.24;;;14.93;46.69
56992;BME280;42885;49.754;18.636;2023-03-14T03:42:36;96531.59;;;15.20;46.59
56992;BME280;42885;49.754;18.636;2023-03-14T03:45:10;96515.95;;;14.89;46.62
56992;BME280;42885;49.754;18.636;2023-03-14T03:47:42;96492.52;;;14.61;47.74
56992;BME280;42885;49.754;18.636;2023-03-14T03:50:14;96484.66;;;15.23;46.63
56992;BME280;42885;49.754;18.636;2023-03-14T03:52:45;96483.27;;;14.49;47.70
56992;BME280;42885;49.754;18.636;2023-03-14T03:55:17;96494.61;;;14.45;47.85
56992;BME280;42885;49.754;18.636;2023-03-14T03:57:49;96483.11;;;14.42;47.84
56992;BME280;42885;49.754;18.636;2023-03-14T04:00:21;96491.61;;;14.31;48.12
56992;BME280;42885;49.754;18.636;2023-03-14T04:02:52;96513.26;;;14.13;48.72
56992;BME280;42885;49.754;18.636;2023-03-14T04:05:24;96527.94;;;14.20;48.77
56992;BME280;42885;49.754;18.636;2023-03-14T04:08:01;96537.92;;;14.12;49.01
56992;BME280;42885;49.754;18.636;2023-03-14T04:10:35;96560.31;;;14.16;48.78
56992;BME280;42885;49.754;18.636;2023-03-14T04:13:08;96573.11;;;14.15;48.79
56992;BME280;42885;49.754;18.636;2023-03-14T04:15:41;96581.61;;;14.00;49.11
56992;BME280;42885;49.754;18.636;2023-03-14T04:18:14;96580.66;;;14.10;48.87
56992;BME280;42885;49.754;18.636;2023-03-14T04:20:51;96563.02;;;14.33;48.56
56992;BME280;42885;49.754;18.636;2023-03-14T04:23:19;96570.22;;;14.26;48.44
56992;BME280;42885;49.754;18.636;2023-03-14T04:25:52;96559.98;;;14.23;48.54
56992;BME280;42885;49.754;18.636;2023-03-14T04:28:24;96539.27;;;14.71;47.61
56992;BME280;42885;49.754;18.636;2023-03-14T04:30:56;96535.65;;;14.17;48.39
56992;BME280;42885;49.754;18.636;2023-03-14T04:33:29;96533.50;;;14.12;48.76
56992;BME280;42885;49.754;18.636;2023-03-14T04:36:00;96521.81;;;14.15;48.51
56992;BME280;42885;49.754;18.636;2023-03-14T04:38:32;96517.80;;;13.98;48.96
56992;BME280;42885;49.754;18.636;2023-03-14T04:41:04;96519.80;;;14.04;49.02
56992;BME280;42885;49.754;18.636;2023-03-14T04:43:36;96509.10;;;14.02;48.96
56992;BME280;42885;49.754;18.636;2023-03-14T04:46:09;96526.89;;;14.04;49.12
56992;BME280;42885;49.754;18.636;2023-03-14T04:48:41;96531.30;;;13.99;49.38
56992;BME280;42885;49.754;18.636;2023-03-14T04:51:12;96523.09;;;14.07;49.48
56992;BME280;42885;49.754;18.636;2023-03-14T04:53:44;96511.02;;;14.26;48.94
56992;BME280;42885;49.754;18.636;2023-03-14T04:56:17;96514.78;;;14.20;49.42
56992;BME280;42885;49.754;18.636;2023-03-14T04:58:48;96505.09;;;14.28;49.09
56992;BME280;42885;49.754;18.636;2023-03-14T05:01:20;96507.55;;;14.22;49.25
56992;BME280;42885;49.754;18.636;2023-03-14T05:04:09;96506.56;;;14.23;49.01
56992;BME280;42885;49.754;18.636;2023-03-14T05:06:51;96499.90;;;14.02;49.35
56992;BME280;42885;49.754;18.636;2023-03-14T05:09:27;96513.38;;;13.95;49.75
56992;BME280;42885;49.754;18.636;2023-03-14T05:12:16;96506.72;;;14.17;49.23
56992;BME280;42885;49.754;18.636;2023-03-14T05:15:06;96499.48;;;14.19;49.35
56992;BME280;42885;49.754;18.636;2023-03-14T05:17:58;96492.72;;;14.16;49.45
56992;BME280;42885;49.754;18.636;2023-03-14T05:20:37;96504.08;;;14.17;49.88
56992;BME280;42885;49.754;18.636;2023-03-14T05:23:26;96484.30;;;14.04;49.80
56992;BME280;42885;49.754;18.636;2023-03-14T05:25:59;96496.25;;;13.90;50.44
56992;BME280;42885;49.754;18.636;2023-03-14T05:28:42;96490.15;;;13.90;50.57
56992;BME280;42885;49.754;18.636;2023-03-14T05:31:19;96491.34;;;13.96;50.92
56992;BME280;42885;49.754;18.636;2023-03-14T05:33:55;96491.71;;;14.05;50.46
56992;BME280;42885;49.754;18.636;2023-03-14T05:36:46;96501.78;;;14.18;50.02
56992;BME280;42885;49.754;18.636;2023-03-14T05:39:23;96501.60;;;14.15;50.18
56992;BME280;42885;49.754;18.636;2023-03-14T05:42:08;96496.28;;;13.99;50.48
56992;BME280;42885;49.754;18.636;2023-03-14T05:44:48;96476.67;;;13.85;51.13
56992;BME280;42885;49.754;18.636;2023-03-14T05:47:38;96476.62;;;13.76;51.57
56992;BME280;42885;49.754;18.636;2023-03-14T05:50:27;96470.75;;;13.83;51.18
56992;BME280;42885;49.754;18.636;2023-03-14T05:53:07;96472.25;;;13.89;51.16
56992;BME280;42885;49.754;18.636;2023-03-14T05:55:53;96464.54;;;13.92;51.26
56992;BME280;42885;49.754;18.636;2023-03-14T05:58:26;96466.63;;;13.80;51.81
56992;BME280;42885;49.754;18.636;2023-03-14T06:01:09;96450.41;;;13.97;50.93
56992;BME280;42885;49.754;18.636;2023-03-14T06:03:45;96445.20;;;14.10;51.26
56992;BME280;42885;49.754;18.636;2023-03-14T06:06:16;96451.88;;;13.92;51.49
56992;BME280;42885;49.754;18.636;2023-03-14T06:08:49;96461.91;;;13.92;51.92
56992;BME280;42885;49.754;18.636;2023-03-14T06:11:21;96450.41;;;13.97;51.32
56992;BME280;42885;49.754;18.636;2023-03-14T06:13:52;96441.56;;;14.02;51.21
56992;BME280;42885;49.754;18.636;2023-03-14T06:16:24;96444.04;;;14.04;50.87
56992;BME280;42885;49.754;18.636;2023-03-14T06:18:56;96447.95;;;14.00;51.27
56992;BME280;42885;49.754;18.636;2023-03-14T06:21:28;96448.94;;;13.95;51.45
56992;BME280;42885;49.754;18.636;2023-03-14T06:24:00;96449.80;;;14.08;51.40
56992;BME280;42885;49.754;18.636;2023-03-14T06:26:33;96462.63;;;14.11;50.96
56992;BME280;42885;49.754;18.636;2023-03-14T06:29:09;96463.11;;;14.10;51.15
56992;BME280;42885;49.754;18.636;2023-03-14T06:31:41;96449.93;;;13.98;51.48
56992;BME280;42885;49.754;18.636;2023-03-14T06:34:15;96450.63;;;14.16;51.10
56992;BME280;42885;49.754;18.636;2023-03-14T06:36:47;96450.83;;;14.31;50.84
56992;BME280;42885;49.754;18.636;2023-03-14T06:39:18;96452.98;;;14.28;50.78
56992;BME280;42885;49.754;18.636;2023-03-14T06:41:53;96451.84;;;14.35;50.56
56992;BME280;42885;49.754;18.636;2023-03-14T06:44:26;96442.80;;;14.37;50.83
56992;BME280;42885;49.754;18.636;2023-03-14T06:46:59;96433.10;;;14.42;50.74
56992;BME280;42885;49.754;18.636;2023-03-14T06:49:31;96421.91;;;14.48;50.61
56992;BME280;42885;49.754;18.636;2023-03-14T06:52:04;96412.69;;;14.48;50.48
56992;BME280;42885;49.754;18.636;2023-03-14T06:54:37;96413.20;;;14.56;50.65
56992;BME280;42885;49.754;18.636;2023-03-14T06:57:09;96421.94;;;14.81;49.86
56992;BME280;42885;49.754;18.636;2023-03-14T06:59:42;96416.67;;;14.90;49.31
56992;BME280;42885;49.754;18.636;2023-03-14T07:02:14;96421.61;;;14.89;49.35
56992;BME280;42885;49.754;18.636;2023-03-14T07:04:46;96429.03;;;14.89;49.14
56992;BME280;42885;49.754;18.636;2023-03-14T07:07:19;96435.96;;;14.86;49.51
56992;BME280;42885;49.754;18.636;2023-03-14T07:09:52;96435.78;;;15.00;49.04
56992;BME280;42885;49.754;18.636;2023-03-14T07:12:25;96440.38;;;15.02;49.03
56992;BME280;42885;49.754;18.636;2023-03-14T07:14:58;96461.78;;;15.16;48.63
56992;BME280;42885;49.754;18.636;2023-03-14T07:17:31;96465.74;;;15.07;48.96
56992;BME280;42885;49.754;18.636;2023-03-14T07:20:03;96467.52;;;15.23;48.73
56992;BME280;42885;49.754;18.636;2023-03-14T07:22:36;96470.64;;;15.35;48.68
56992;BME280;42885;49.754;18.636;2023-03-14T07:25:08;96481.69;;;15.18;48.88
56992;BME280;42885;49.754;18.636;2023-03-14T07:27:46;96485.98;;;15.27;49.05
56992;BME280;42885;49.754;18.636;2023-03-14T07:30:22;96474.60;;;15.27;48.34
56992;BME280;42885;49.754;18.636;2023-03-14T07:32:54;96482.27;;;15.66;47.81
56992;BME280;42885;49.754;18.636;2023-03-14T07:35:26;96487.35;;;15.72;47.64
56992;BME280;42885;49.754;18.636;2023-03-14T07:37:57;96495.47;;;15.62;47.68
56992;BME280;42885;49.754;18.636;2023-03-14T07:40:30;96486.84;;;15.76;47.69
56992;BME280;42885;49.754;18.636;2023-03-14T07:43:01;96498.90;;;15.75;47.79
56992;BME280;42885;49.754;18.636;2023-03-14T07:45:34;96482.93;;;15.60;47.84
56992;BME280;42885;49.754;18.636;2023-03-14T07:48:07;96485.71;;;15.75;47.41
56992;BME280;42885;49.754;18.636;2023-03-14T07:50:38;96484.72;;;15.72;47.53
56992;BME280;42885;49.754;18.636;2023-03-14T07:53:09;96495.59;;;15.77;47.15
56992;BME280;42885;49.754;18.636;2023-03-14T07:55:41;96485.73;;;15.66;47.95
56992;BME280;42885;49.754;18.636;2023-03-14T07:58:12;96479.41;;;15.92;47.38
56992;BME280;42885;49.754;18.636;2023-03-14T08:00:44;96477.36;;;15.54;48.36
56992;BME280;42885;49.754;18.636;2023-03-14T08:03:15;96477.17;;;15.56;48.54
56992;BME280;42885;49.754;18.636;2023-03-14T08:05:50;96481.77;;;15.62;48.36
56992;BME280;42885;49.754;18.636;2023-03-14T08:08:21;96490.35;;;15.56;48.45
56992;BME280;42885;49.754;18.636;2023-03-14T08:10:52;96483.18;;;15.98;47.77
56992;BME280;42885;49.754;18.636;2023-03-14T08:13:23;96485.06;;;15.64;48.38
56992;BME280;42885;49.754;18.636;2023-03-14T08:15:55;96492.09;;;15.93;47.83
56992;BME280;42885;49.754;18.636;2023-03-14T08:18:27;96490.93;;;15.95;48.10
56992;BME280;42885;49.754;18.636;2023-03-14T08:20:58;96495.88;;;15.86;48.32
56992;BME280;42885;49.754;18.636;2023-03-14T08:23:30;96497.14;;;16.15;47.73
56992;BME280;42885;49.754;18.636;2023-03-14T08:26:01;96501.58;;;16.15;47.36
56992;BME280;42885;49.754;18.636;2023-03-14T08:28:32;96492.09;;;15.93;47.96
56992;BME280;42885;49.754;18.636;2023-03-14T08:31:03;96484.30;;;16.04;47.96
56992;BME280;42885;49.754;18.636;2023-03-14T08:33:35;96482.58;;;16.23;47.99
56992;BME280;42885;49.754;18.636;2023-03-14T08:36:06;96480.59;;;16.21;47.84
56992;BME280;42885;49.754;18.636;2023-03-14T08:38:38;96496.42;;;16.26;47.83
56992;BME280;42885;49.754;18.636;2023-03-14T08:41:10;96505.86;;;16.16;48.29
56992;BME280;42885;49.754;18.636;2023-03-14T08:43:41;96503.48;;;16.61;47.40
56992;BME280;42885;49.754;18.636;2023-03-14T08:46:12;96499.66;;;16.40;48.16
56992;BME280;42885;49.754;18.636;2023-03-14T08:48:44;96503.42;;;16.42;47.32
56992;BME280;42885;49.754;18.636;2023-03-14T08:51:15;96510.50;;;16.45;47.35
56992;BME280;42885;49.754;18.636;2023-03-14T08:53:47;96508.34;;;16.72;47.04
56992;BME280;42885;49.754;18.636;2023-03-14T08:56:20;96508.02;;;16.75;46.76
56992;BME280;42885;49.754;18.636;2023-03-14T08:58:51;96506.95;;;16.61;46.58
56992;BME280;42885;49.754;18.636;2023-03-14T09:01:23;96500.11;;;16.71;46.99
56992;BME280;42885;49.754;18.636;2023-03-14T09:03:55;96493.75;;;16.85;46.28
56992;BME280;42885;49.754;18.636;2023-03-14T09:06:26;96490.70;;;16.73;46.52
56992;BME280;42885;49.754;18.636;2023-03-14T09:08:57;96489.36;;;16.96;45.92
56992;BME280;42885;49.754;18.636;2023-03-14T09:11:29;96495.30;;;17.02;46.45
56992;BME280;42885;49.754;18.636;2023-03-14T09:14:01;96503.58;;;17.38;45.40
56992;BME280;42885;49.754;18.636;2023-03-14T09:16:33;96498.13;;;17.54;44.88
56992;BME280;42885;49.754;18.636;2023-03-14T09:19:05;96495.94;;;17.43;45.14
56992;BME280;42885;49.754;18.636;2023-03-14T09:21:36;96511.51;;;17.38;45.13
56992;BME280;42885;49.754;18.636;2023-03-14T09:24:08;96505.36;;;17.41;45.62
56992;BME280;42885;49.754;18.636;2023-03-14T09:26:40;96509.33;;;17.41;45.28
56992;BME280;42885;49.754;18.636;2023-03-14T09:29:11;96506.92;;;17.51;45.46
56992;BME280;42885;49.754;18.636;2023-03-14T09:31:42;96507.67;;;17.25;45.81
56992;BME280;42885;49.754;18.636;2023-03-14T09:34:14;96501.55;;;17.44;46.75
56992;BME280;42885;49.754;18.636;2023-03-14T09:36:45;96506.91;;;17.70;45.60
56992;BME280;42885;49.754;18.636;2023-03-14T09:39:16;96506.91;;;17.70;45.81
56992;BME280;42885;49.754;18.636;2023-03-14T09:41:50;96511.31;;;17.24;45.98
56992;BME280;42885;49.754;18.636;2023-03-14T09:44:36;96509.06;;;17.17;47.02
56992;BME280;42885;49.754;18.636;2023-03-14T09:47:07;96514.31;;;16.70;48.13
56992;BME280;42885;49.754;18.636;2023-03-14T09:49:42;96519.41;;;16.48;48.30
56992;BME280;42885;49.754;18.636;2023-03-14T09:52:15;96542.50;;;16.50;48.71
56992;BME280;42885;49.754;18.636;2023-03-14T09:54:55;96550.25;;;16.52;48.85
56992;BME280;42885;49.754;18.636;2023-03-14T09:57:21;96558.66;;;16.51;48.59
56992;BME280;42885;49.754;18.636;2023-03-14T09:59:58;96549.15;;;17.01;48.09
56992;BME280;42885;49.754;18.636;2023-03-14T10:02:35;96569.94;;;16.41;49.65
56992;BME280;42885;49.754;18.636;2023-03-14T10:05:13;96565.46;;;16.42;49.72
56992;BME280;42885;49.754;18.636;2023-03-14T10:07:40;96564.50;;;16.34;49.58
56992;BME280;42885;49.754;18.636;2023-03-14T10:10:13;96566.30;;;16.42;49.72
56992;BME280;42885;49.754;18.636;2023-03-14T10:12:49;96558.28;;;16.27;50.00
56992;BME280;42885;49.754;18.636;2023-03-14T10:15:33;96561.53;;;16.37;49.69
56992;BME280;42885;49.754;18.636;2023-03-14T10:18:03;96571.58;;;16.38;50.33
56992;BME280;42885;49.754;18.636;2023-03-14T10:20:39;96570.34;;;16.61;49.49
56992;BME280;42885;49.754;18.636;2023-03-14T10:25:58;96582.45;;;16.43;50.11
56992;BME280;42885;49.754;18.636;2023-03-14T10:28:25;96581.73;;;16.58;49.86
56992;BME280;42885;49.754;18.636;2023-03-14T10:31:00;96589.09;;;16.31;50.21
56992;BME280;42885;49.754;18.636;2023-03-14T10:33:35;96582.66;;;16.37;50.20
56992;BME280;42885;49.754;18.636;2023-03-14T10:36:23;96571.55;;;16.46;50.11
56992;BME280;42885;49.754;18.636;2023-03-14T10:39:23;96578.27;;;16.17;50.90
56992;BME280;42885;49.754;18.636;2023-03-14T10:42:04;96577.41;;;16.29;51.36
56992;BME280;42885;49.754;18.636;2023-03-14T10:44:36;96574.61;;;16.27;51.54
56992;BME280;42885;49.754;18.636;2023-03-14T10:47:15;96572.25;;;16.36;51.17
56992;BME280;42885;49.754;18.636;2023-03-14T10:49:42;96560.98;;;16.46;51.20
56992;BME280;42885;49.754;18.636;2023-03-14T10:52:24;96558.41;;;16.65;51.08
56992;BME280;42885;49.754;18.636;2023-03-14T10:55:02;96551.93;;;16.72;50.83
56992;BME280;42885;49.754;18.636;2023-03-14T10:57:40;96549.71;;;16.84;50.26
56992;BME280;42885;49.754;18.636;2023-03-14T11:00:17;96546.27;;;16.84;50.13
56992;BME280;42885;49.754;18.636;2023-03-14T11:03:10;96541.77;;;16.88;49.97
56992;BME280;42885;49.754;18.636;2023-03-14T11:06:05;96550.58;;;17.08;49.66
56992;BME280;42885;49.754;18.636;2023-03-14T11:11:29;96551.13;;;16.95;50.19
56992;BME280;42885;49.754;18.636;2023-03-14T11:25:18;96553.82;;;16.59;51.28
56992;BME280;42885;49.754;18.636;2023-03-14T11:28:03;96563.94;;;16.51;51.79
56992;BME280;42885;49.754;18.636;2023-03-14T11:30:54;96553.22;;;16.49;51.62
56992;BME280;42885;49.754;18.636;2023-03-14T11:36:06;96552.17;;;16.62;51.70
56992;BME280;42885;49.754;18.636;2023-03-14T11:41:23;96562.66;;;16.43;53.42
56992;BME280;42885;49.754;18.636;2023-03-14T11:43:55;96569.67;;;16.19;55.56
56992;BME280;42885;49.754;18.636;2023-03-14T11:46:29;96570.03;;;16.12;56.13
56992;BME280;42885;49.754;18.636;2023-03-14T11:51:43;96563.59;;;16.19;56.92
56992;BME280;42885;49.754;18.636;2023-03-14T11:54:27;96563.97;;;15.99;58.11
56992;BME280;42885;49.754;18.636;2023-03-14T11:56:59;96561.33;;;16.03;58.72
56992;BME280;42885;49.754;18.636;2023-03-14T12:05:43;96553.17;;;16.21;59.58
56992;BME280;42885;49.754;18.636;2023-03-14T12:08:40;96546.69;;;16.36;59.15
56992;BME280;42885;49.754;18.636;2023-03-14T12:10:58;96546.30;;;16.52;59.06
56992;BME280;42885;49.754;18.636;2023-03-14T12:13:33;96538.64;;;16.61;59.59
56992;BME280;42885;49.754;18.636;2023-03-14T12:16:05;96542.73;;;16.64;59.19
56992;BME280;42885;49.754;18.636;2023-03-14T12:18:38;96538.06;;;16.43;60.22
56992;BME280;42885;49.754;18.636;2023-03-14T12:21:13;96527.02;;;16.43;61.61
56992;BME280;42885;49.754;18.636;2023-03-14T12:23:55;96529.21;;;16.35;61.26
56992;BME280;42885;49.754;18.636;2023-03-14T12:26:44;96523.03;;;16.75;60.34
56992;BME280;42885;49.754;18.636;2023-03-14T12:31:46;96515.41;;;16.80;60.14
56992;BME280;42885;49.754;18.636;2023-03-14T12:36:54;96525.69;;;16.12;64.41
56992;BME280;42885;49.754;18.636;2023-03-14T12:42:37;96529.19;;;16.00;66.67
56992;BME280;42885;49.754;18.636;2023-03-14T12:45:14;96530.53;;;15.91;67.56
56992;BME280;42885;49.754;18.636;2023-03-14T12:50:43;96522.52;;;15.35;72.96
56992;BME280;42885;49.754;18.636;2023-03-14T12:53:39;96522.20;;;15.30;73.37
56992;BME280;42885;49.754;18.636;2023-03-14T12:56:11;96529.08;;;15.51;72.37
56992;BME280;42885;49.754;18.636;2023-03-14T13:01:20;96532.42;;;15.20;74.91
56992;BME280;42885;49.754;18.636;2023-03-14T13:03:54;96541.46;;;15.30;75.57
56992;BME280;42885;49.754;18.636;2023-03-14T13:06:52;96543.95;;;15.19;76.90
56992;BME280;42885;49.754;18.636;2023-03-14T13:12:14;96542.80;;;15.26;78.13
56992;BME280;42885;49.754;18.636;2023-03-14T13:14:48;96541.32;;;15.11;80.17
56992;BME280;42885;49.754;18.636;2023-03-14T13:17:31;96546.24;;;14.97;82.23
56992;BME280;42885;49.754;18.636;2023-03-14T13:20:00;96545.06;;;14.88;83.97
56992;BME280;42885;49.754;18.636;2023-03-14T13:22:33;96566.33;;;14.94;84.49
56992;BME280;42885;49.754;18.636;2023-03-14T13:25:09;96567.77;;;14.80;87.02
56992;BME280;42885;49.754;18.636;2023-03-14T13:27:39;96579.56;;;14.68;90.67
56992;BME280;42885;49.754;18.636;2023-03-14T13:30:25;96574.41;;;15.09;86.67
56992;BME280;42885;49.754;18.636;2023-03-14T13:32:56;96578.41;;;14.66;94.10
56992;BME280;42885;49.754;18.636;2023-03-14T13:35:29;96579.19;;;14.50;96.80
56992;BME280;42885;49.754;18.636;2023-03-14T13:38:02;96582.45;;;14.44;99.15
56992;BME280;42885;49.754;18.636;2023-03-14T13:40:34;96579.31;;;14.40;100.00
56992;BME280;42885;49.754;18.636;2023-03-14T13:43:33;96588.67;;;14.39;100.00
56992;BME280;42885;49.754;18.636;2023-03-14T13:46:21;96591.69;;;14.52;100.00
56992;BME280;42885;49.754;18.636;2023-03-14T13:49:06;96586.44;;;14.17;100.00
56992;BME280;42885;49.754;18.636;2023-03-14T13:51:40;96596.12;;;14.09;100.00
56992;BME280;42885;49.754;18.636;2023-03-14T13:54:16;96597.25;;;14.06;100.00
56992;BME280;42885;49.754;18.636;2023-03-14T13:56:49;96596.55;;;14.00;100.00
56992;BME280;42885;49.754;18.636;2023-03-14T13:59:23;96588.02;;;14.37;100.00
56992;BME280;42885;49.754;18.636;2023-03-14T14:01:56;96584.75;;;14.08;100.00
56992;BME280;42885;49.754;18.636;2023-03-14T14:04:30;96588.19;;;14.39;100.00
56992;BME280;42885;49.754;18.636;2023-03-14T14:07:05;96592.32;;;14.42;100.00
56992;BME280;42885;49.754;18.636;2023-03-14T14:09:46;96581.95;;;14.83;100.00
56992;BME280;42885;49.754;18.636;2023-03-14T14:12:29;96580.89;;;14.21;100.00
56992;BME280;42885;49.754;18.636;2023-03-14T14:15:09;96573.50;;;14.28;100.00
56992;BME280;42885;49.754;18.636;2023-03-14T14:17:43;96575.52;;;14.35;100.00